createdAt,value
2019-02-26T00:01:16.406Z,4.28
2019-02-26T00:03:44.686Z,4.28
2019-02-26T00:06:16.176Z,4.25
2019-02-26T00:08:49.234Z,4.26
2019-02-26T00:11:17.020Z,4.26
2019-02-26T00:13:48.058Z,4.26
2019-02-26T00:16:18.436Z,4.26
2019-02-26T00:18:48.431Z,4.27
2019-02-26T00:21:17.635Z,4.27
2019-02-26T00:23:48.869Z,4.20
2019-02-26T00:26:20.662Z,4.20
2019-02-26T00:28:50.304Z,4.11
2019-02-26T00:31:21.519Z,3.95
2019-02-26T00:33:50.231Z,3.95
2019-02-26T00:36:19.301Z,3.85
2019-02-26T00:38:48.423Z,3.83
2019-02-26T00:41:20.530Z,3.86
2019-02-26T00:43:51.230Z,3.85
2019-02-26T00:46:19.585Z,3.92
2019-02-26T00:48:49.190Z,3.70
2019-02-26T00:51:20.561Z,3.70
2019-02-26T00:53:52.793Z,3.65
2019-02-26T00:56:19.953Z,3.59
2019-02-26T00:58:50.380Z,3.67
2019-02-26T01:01:21.497Z,3.65
2019-02-26T01:03:51.868Z,3.63
2019-02-26T01:06:22.628Z,3.63
2019-02-26T01:08:52.418Z,3.63
2019-02-26T01:11:23.768Z,3.55
2019-02-26T01:13:52.848Z,3.67
2019-02-26T01:16:22.554Z,3.67
2019-02-26T01:18:53.211Z,3.40
2019-02-26T01:21:26.260Z,3.50
2019-02-26T01:23:53.641Z,3.50
2019-02-26T01:26:22.855Z,3.46
2019-02-26T01:28:53.667Z,3.42
2019-02-26T01:31:24.693Z,3.46
2019-02-26T01:33:55.324Z,3.46
2019-02-26T01:36:25.702Z,3.47
2019-02-26T01:38:54.859Z,3.35
2019-02-26T01:41:25.031Z,3.31
2019-02-26T01:43:56.628Z,3.31
2019-02-26T01:46:25.841Z,3.26
2019-02-26T01:48:57.427Z,3.26
2019-02-26T01:51:28.487Z,3.28
2019-02-26T01:53:57.085Z,3.28
2019-02-26T01:56:28.050Z,3.23
2019-02-26T01:59:02.095Z,3.23
2019-02-26T02:01:28.010Z,3.21
2019-02-26T02:03:57.061Z,3.11
2019-02-26T02:06:26.231Z,3.11
2019-02-26T02:08:55.813Z,3.09
2019-02-26T02:11:28.198Z,3.09
2019-02-26T02:13:55.885Z,2.91
2019-02-26T02:16:28.540Z,2.95
2019-02-26T02:18:58.204Z,2.74
2019-02-26T02:21:30.421Z,2.74
2019-02-26T02:23:58.335Z,2.81
2019-02-26T02:26:27.570Z,2.92
2019-02-26T02:28:56.925Z,2.72
2019-02-26T02:31:30.312Z,2.56
2019-02-26T02:33:57.071Z,2.56
2019-02-26T02:36:26.740Z,2.67
2019-02-26T02:38:55.939Z,2.75
2019-02-26T02:41:25.014Z,2.71
2019-02-26T02:43:54.407Z,2.74
2019-02-26T02:46:23.493Z,2.67
2019-02-26T02:48:52.584Z,2.70
2019-02-26T02:51:21.651Z,2.48
2019-02-26T02:53:53.522Z,2.48
2019-02-26T02:56:22.080Z,2.61
2019-02-26T02:58:51.763Z,2.50
2019-02-26T03:01:24.430Z,2.50
2019-02-26T03:03:53.809Z,2.28
2019-02-26T03:06:24.282Z,2.51
2019-02-26T03:08:53.858Z,2.51
2019-02-26T03:11:22.943Z,2.47
2019-02-26T03:13:53.856Z,2.40
2019-02-26T03:16:25.087Z,2.27
2019-02-26T03:18:53.868Z,2.27
2019-02-26T03:21:24.748Z,2.40
2019-02-26T03:23:53.880Z,2.11
2019-02-26T03:26:25.323Z,2.11
2019-02-26T03:28:54.191Z,2.15
2019-02-26T03:31:28.517Z,2.40
2019-02-26T03:34:00.117Z,2.40
2019-02-26T03:36:26.184Z,2.36
2019-02-26T03:38:57.284Z,2.50
2019-02-26T03:41:28.849Z,2.30
2019-02-26T03:44:00.551Z,2.31
2019-02-26T03:46:28.998Z,2.46
2019-02-26T03:49:02.471Z,2.46
2019-02-26T03:51:29.410Z,2.39
2019-02-26T03:53:59.057Z,2.07
2019-02-26T03:56:28.445Z,2.07
2019-02-26T03:59:00.233Z,2.24
2019-02-26T04:01:28.489Z,2.24
2019-02-26T04:03:59.717Z,1.90
2019-02-26T04:06:30.563Z,2.05
2019-02-26T04:08:59.804Z,2.05
2019-02-26T04:11:29.157Z,2.14
2019-02-26T04:13:58.320Z,1.98
2019-02-26T04:16:29.633Z,2.02
2019-02-26T04:18:58.550Z,2.08
2019-02-26T04:22:04.908Z,2.13
2019-02-26T04:24:37.406Z,2.10
2019-02-26T04:27:33.497Z,2.04
2019-02-26T04:30:36.526Z,2.02
2019-02-26T04:33:33.400Z,2.02
2019-02-26T04:36:49.585Z,2.13
2019-02-26T04:40:11.823Z,1.96
2019-02-26T04:43:48.923Z,1.90
2019-02-26T04:46:39.539Z,1.69
2019-02-26T04:49:08.719Z,1.69
2019-02-26T04:51:39.875Z,1.87
2019-02-26T04:54:09.242Z,1.88
2019-02-26T04:56:40.219Z,1.82
2019-02-26T04:59:12.354Z,1.88
2019-02-26T05:01:41.314Z,1.88
2019-02-26T05:04:10.362Z,1.92
2019-02-26T05:06:39.448Z,2.06
2019-02-26T05:09:10.511Z,1.98
2019-02-26T05:11:40.696Z,1.86
2019-02-26T05:14:11.730Z,1.89
2019-02-26T05:16:40.930Z,1.72
2019-02-26T05:19:10.643Z,1.76
2019-02-26T05:21:40.890Z,1.72
2019-02-26T05:24:12.415Z,1.65
2019-02-26T05:26:40.762Z,1.56
2019-02-26T05:29:13.565Z,1.47
2019-02-26T05:31:43.264Z,1.60
2019-02-26T05:34:15.130Z,1.76
2019-02-26T05:36:46.089Z,1.81
2019-02-26T05:39:18.112Z,1.87
2019-02-26T05:41:45.480Z,1.89
2019-02-26T05:44:14.574Z,1.73
2019-02-26T05:46:43.626Z,1.54
2019-02-26T05:49:15.723Z,1.44
2019-02-26T05:51:43.688Z,1.37
2019-02-26T05:54:15.287Z,1.26
2019-02-26T05:56:46.126Z,1.29
2019-02-26T05:59:15.492Z,1.38
2019-02-26T06:01:46.565Z,1.51
2019-02-26T06:04:20.623Z,1.55
2019-02-26T06:06:52.737Z,1.62
2019-02-26T06:09:23.513Z,1.57
2019-02-26T06:11:51.253Z,1.57
2019-02-26T06:14:20.543Z,1.69
2019-02-26T06:16:51.309Z,1.73
2019-02-26T06:19:37.782Z,1.74
2019-02-26T06:22:08.931Z,1.73
2019-02-26T06:24:38.677Z,1.58
2019-02-26T06:27:10.813Z,1.66
2019-02-26T06:29:38.994Z,1.69
2019-02-26T06:32:15.620Z,1.63
2019-02-26T06:34:44.733Z,1.73
2019-02-26T06:37:16.650Z,1.65
2019-02-26T06:39:45.747Z,1.77
2019-02-26T06:42:15.057Z,1.77
2019-02-26T06:44:46.424Z,1.83
2019-02-26T06:47:15.258Z,1.87
2019-02-26T06:49:45.774Z,2.16
2019-02-26T06:52:17.913Z,2.21
2019-02-26T06:54:50.170Z,2.21
2019-02-26T06:57:18.198Z,2.30
2019-02-26T06:59:47.365Z,2.49
2019-02-26T07:02:16.801Z,2.82
2019-02-26T07:04:45.859Z,2.90
2019-02-26T07:07:15.175Z,3.13
2019-02-26T07:09:44.256Z,3.13
2019-02-26T07:12:14.598Z,3.55
2019-02-26T07:14:46.422Z,3.55
2019-02-26T07:17:15.286Z,3.71
2019-02-26T07:19:44.334Z,3.89
2019-02-26T07:22:14.249Z,3.87
2019-02-26T07:24:46.270Z,3.72
2019-02-26T07:27:15.543Z,3.84
2019-02-26T07:29:45.758Z,3.95
2019-02-26T07:32:17.900Z,4.03
2019-02-26T07:34:47.965Z,4.17
2019-02-26T07:37:17.323Z,4.17
2019-02-26T07:39:47.193Z,4.31
2019-02-26T07:42:18.882Z,4.55
2019-02-26T07:44:48.019Z,4.66
2019-02-26T07:47:17.094Z,4.78
2019-02-26T07:49:46.436Z,4.78
2019-02-26T07:52:15.560Z,4.75
2019-02-26T07:54:47.093Z,4.87
2019-02-26T07:57:17.965Z,5.61
2019-02-26T07:59:47.683Z,5.96
2019-02-26T08:02:17.866Z,5.96
2019-02-26T08:04:46.972Z,6.15
2019-02-26T08:07:16.019Z,6.24
2019-02-26T08:09:45.128Z,6.41
2019-02-26T08:12:14.214Z,6.86
2019-02-26T08:14:45.887Z,7.27
2019-02-26T08:17:14.633Z,7.69
2019-02-26T08:19:46.709Z,8.00
2019-02-26T08:22:15.143Z,8.11
2019-02-26T08:24:46.098Z,8.57
2019-02-26T08:27:15.141Z,8.87
2019-02-26T08:29:44.250Z,9.29
2019-02-26T08:32:15.894Z,9.48
2019-02-26T08:34:44.219Z,9.75
2019-02-26T08:37:13.462Z,9.97
2019-02-26T08:39:42.640Z,9.94
2019-02-26T08:42:12.314Z,10.22
2019-02-26T08:44:41.393Z,10.50
2019-02-26T08:47:12.011Z,10.48
2019-02-26T08:49:43.426Z,10.63
2019-02-26T08:52:12.093Z,10.94
2019-02-26T08:54:41.136Z,11.04
2019-02-26T08:57:11.919Z,11.44
2019-02-26T08:59:42.286Z,11.68
2019-02-26T09:02:12.419Z,11.94
2019-02-26T09:04:42.596Z,12.06
2019-02-26T09:07:14.005Z,11.92
2019-02-26T09:09:45.138Z,12.10
2019-02-26T09:12:15.293Z,11.99
2019-02-26T09:14:47.628Z,12.34
2019-02-26T09:17:18.788Z,12.48
2019-02-26T09:19:47.567Z,12.50
2019-02-26T09:22:19.329Z,12.72
2019-02-26T09:24:49.398Z,12.90
2019-02-26T09:27:18.796Z,13.18
2019-02-26T09:29:51.300Z,13.21
2019-02-26T09:32:18.747Z,13.27
2019-02-26T09:34:47.960Z,13.26
2019-02-26T09:37:17.096Z,13.42
2019-02-26T09:39:46.349Z,13.68
2019-02-26T09:42:15.462Z,13.92
2019-02-26T09:44:44.741Z,14.23
2019-02-26T09:47:14.097Z,14.31
2019-02-26T09:49:43.253Z,14.41
2019-02-26T09:52:12.481Z,14.63
2019-02-26T09:54:42.914Z,14.89
2019-02-26T09:57:15.518Z,15.10
2019-02-26T09:59:43.149Z,15.05
2019-02-26T10:02:12.377Z,15.26
2019-02-26T10:04:42.470Z,15.54
2019-02-26T10:07:14.371Z,15.55
2019-02-26T10:09:46.483Z,15.66
2019-02-26T10:12:15.725Z,15.92
2019-02-26T10:14:45.527Z,16.03
2019-02-26T10:17:16.485Z,16.01
2019-02-26T10:19:45.647Z,16.12
2019-02-26T10:22:14.759Z,16.14
2019-02-26T10:24:44.038Z,16.23
2019-02-26T10:27:14.619Z,16.36
2019-02-26T10:29:45.083Z,16.54
2019-02-26T10:32:14.884Z,16.66
2019-02-26T10:34:44.199Z,16.97
2019-02-26T10:37:13.292Z,17.06
2019-02-26T10:39:44.357Z,16.95
2019-02-26T10:42:13.459Z,17.18
2019-02-26T10:44:42.811Z,16.93
2019-02-26T10:47:12.124Z,17.25
2019-02-26T10:49:41.319Z,17.45
2019-02-26T10:52:13.423Z,17.46
2019-02-26T10:54:43.697Z,17.30
2019-02-26T10:57:14.545Z,17.33
2019-02-26T10:59:45.000Z,17.50
2019-02-26T11:02:15.193Z,17.72
2019-02-26T11:04:46.919Z,17.94
2019-02-26T11:07:16.307Z,17.89
2019-02-26T11:09:49.510Z,17.89
2019-02-26T11:12:16.819Z,17.90
2019-02-26T11:14:45.878Z,17.98
2019-02-26T11:17:15.831Z,17.92
2019-02-26T11:19:46.320Z,17.69
2019-02-26T11:22:18.094Z,17.75
2019-02-26T11:24:48.521Z,17.97
2019-02-26T11:27:17.814Z,17.99
2019-02-26T11:29:47.370Z,18.25
2019-02-26T11:32:16.682Z,18.09
2019-02-26T11:34:45.796Z,18.07
2019-02-26T11:37:15.310Z,18.10
2019-02-26T11:39:44.407Z,18.10
2019-02-26T11:42:13.480Z,18.18
2019-02-26T11:44:42.732Z,18.25
2019-02-26T11:47:13.551Z,18.44
2019-02-26T11:49:44.302Z,18.23
2019-02-26T11:52:13.523Z,18.36
2019-02-26T11:54:44.676Z,18.37
2019-02-26T11:57:15.355Z,18.49
2019-02-26T11:59:44.752Z,18.52
2019-02-26T12:02:13.897Z,18.68
2019-02-26T12:04:43.125Z,18.84
2019-02-26T12:07:12.313Z,18.74
2019-02-26T12:09:43.276Z,18.67
2019-02-26T12:12:12.715Z,18.84
2019-02-26T12:14:43.893Z,18.72
2019-02-26T12:17:12.609Z,18.77
2019-02-26T12:19:41.841Z,18.67
2019-02-26T12:22:10.915Z,18.71
2019-02-26T12:24:40.037Z,18.82
2019-02-26T12:27:09.791Z,18.76
2019-02-26T12:29:43.666Z,18.50
2019-02-26T12:32:12.271Z,18.42
2019-02-26T12:34:44.599Z,18.40
2019-02-26T12:37:12.624Z,18.46
2019-02-26T12:39:43.736Z,18.57
2019-02-26T12:42:13.964Z,18.63
2019-02-26T12:44:45.445Z,18.72
2019-02-26T12:47:17.897Z,18.73
2019-02-26T12:49:45.734Z,18.77
2019-02-26T12:52:16.078Z,18.85
2019-02-26T12:54:45.866Z,18.88
2019-02-26T12:57:16.986Z,18.93
2019-02-26T12:59:46.413Z,18.91
2019-02-26T13:02:17.049Z,18.81
2019-02-26T13:04:48.052Z,18.76
2019-02-26T13:07:17.396Z,18.72
2019-02-26T13:09:51.301Z,18.85
2019-02-26T13:12:23.263Z,18.93
2019-02-26T13:14:50.510Z,18.97
2019-02-26T13:17:21.955Z,18.92
2019-02-26T13:19:58.137Z,18.95
2019-02-26T13:22:22.318Z,18.96
2019-02-26T13:24:51.355Z,18.83
2019-02-26T13:27:20.478Z,18.99
2019-02-26T13:29:56.843Z,19.06
2019-02-26T13:32:24.989Z,19.06
2019-02-26T13:34:55.659Z,18.91
2019-02-26T13:37:26.721Z,18.96
2019-02-26T13:39:54.523Z,18.96
2019-02-26T13:42:23.708Z,19.10
2019-02-26T13:44:52.910Z,19.08
2019-02-26T13:47:22.208Z,19.01
2019-02-26T13:49:52.082Z,18.98
2019-02-26T13:52:21.180Z,19.00
2019-02-26T13:54:50.680Z,18.96
2019-02-26T13:57:20.013Z,19.04
2019-02-26T13:59:49.341Z,19.00
2019-02-26T14:02:18.427Z,19.09
2019-02-26T14:04:47.521Z,19.16
2019-02-26T14:07:16.801Z,19.11
2019-02-26T14:09:46.340Z,19.12
2019-02-26T14:12:15.721Z,19.09
2019-02-26T14:14:44.859Z,19.09
2019-02-26T14:17:15.130Z,18.99
2019-02-26T14:19:44.249Z,19.02
2019-02-26T14:22:13.457Z,19.00
2019-02-26T14:24:42.717Z,19.10
2019-02-26T14:27:11.948Z,19.05
2019-02-26T14:29:41.144Z,18.97
2019-02-26T14:32:10.289Z,18.97
2019-02-26T14:34:39.423Z,19.02
2019-02-26T14:37:08.540Z,19.04
2019-02-26T14:39:37.759Z,18.99
2019-02-26T14:42:06.953Z,18.94
2019-02-26T14:44:36.134Z,19.01
2019-02-26T14:47:05.540Z,19.03
2019-02-26T14:49:34.723Z,19.02
2019-02-26T14:52:03.842Z,19.06
2019-02-26T14:54:32.990Z,19.04
2019-02-26T14:57:02.351Z,19.03
2019-02-26T14:59:32.987Z,18.97
2019-02-26T15:02:02.229Z,18.99
2019-02-26T15:04:34.683Z,18.99
2019-02-26T15:07:04.060Z,18.98
2019-02-26T15:09:33.404Z,18.96
2019-02-26T15:12:02.506Z,18.91
2019-02-26T15:14:31.595Z,19.02
2019-02-26T15:17:01.032Z,18.89
2019-02-26T15:19:30.303Z,18.96
2019-02-26T15:21:59.591Z,18.92
2019-02-26T15:24:28.807Z,18.94
2019-02-26T15:26:58.140Z,18.91
2019-02-26T15:29:27.217Z,18.80
2019-02-26T15:31:56.692Z,18.79
2019-02-26T15:34:25.898Z,18.90
2019-02-26T15:36:55.089Z,18.82
2019-02-26T15:39:24.478Z,18.78
2019-02-26T15:41:53.771Z,18.79
2019-02-26T15:44:22.899Z,18.87
2019-02-26T15:46:52.060Z,18.84
2019-02-26T15:49:21.177Z,18.74
2019-02-26T15:51:50.988Z,18.80
2019-02-26T15:54:21.087Z,18.77
2019-02-26T15:56:50.888Z,18.64
2019-02-26T15:59:20.179Z,18.46
2019-02-26T16:01:49.780Z,18.49
2019-02-26T16:04:19.023Z,18.67
2019-02-26T16:06:48.240Z,18.60
2019-02-26T16:09:19.531Z,18.65
2019-02-26T16:11:48.835Z,18.61
2019-02-26T16:14:17.911Z,18.55
2019-02-26T16:16:47.139Z,18.50
2019-02-26T16:19:16.474Z,18.38
2019-02-26T16:21:45.675Z,18.33
2019-02-26T16:24:14.887Z,18.21
2019-02-26T16:26:43.994Z,18.28
2019-02-26T16:29:13.561Z,18.29
2019-02-26T16:31:42.664Z,18.20
2019-02-26T16:34:12.422Z,18.14
2019-02-26T16:36:41.841Z,18.07
2019-02-26T16:39:10.984Z,18.02
2019-02-26T16:41:40.269Z,18.02
2019-02-26T16:44:09.655Z,18.00
2019-02-26T16:46:39.613Z,17.89
2019-02-26T16:49:09.938Z,17.78
2019-02-26T16:51:39.179Z,17.66
2019-02-26T16:54:08.688Z,17.45
2019-02-26T16:56:37.971Z,17.26
2019-02-26T16:59:07.842Z,17.06
2019-02-26T17:01:37.930Z,16.88
2019-02-26T17:04:07.710Z,16.70
2019-02-26T17:06:37.465Z,16.53
2019-02-26T17:09:07.872Z,16.32
2019-02-26T17:11:37.100Z,16.08
2019-02-26T17:14:06.407Z,15.88
2019-02-26T17:16:35.573Z,15.70
2019-02-26T17:19:04.743Z,15.55
2019-02-26T17:21:33.958Z,15.38
2019-02-26T17:24:03.138Z,15.07
2019-02-26T17:26:33.370Z,14.87
2019-02-26T17:29:03.217Z,14.70
2019-02-26T17:31:32.615Z,14.53
2019-02-26T17:34:01.839Z,14.37
2019-02-26T17:36:32.639Z,14.24
2019-02-26T17:39:02.064Z,14.14
2019-02-26T17:41:31.379Z,14.03
2019-02-26T17:44:02.161Z,13.88
2019-02-26T17:46:31.958Z,13.72
2019-02-26T17:49:02.868Z,13.54
2019-02-26T17:51:32.460Z,13.35
2019-02-26T17:54:01.947Z,13.20
2019-02-26T17:56:32.779Z,13.05
2019-02-26T17:59:01.896Z,12.86
2019-02-26T18:01:31.191Z,12.77
2019-02-26T18:04:00.286Z,12.63
2019-02-26T18:06:29.552Z,12.50
2019-02-26T18:08:58.740Z,12.36
2019-02-26T18:11:27.822Z,12.20
2019-02-26T18:13:57.832Z,12.03
2019-02-26T18:16:28.259Z,11.91
2019-02-26T18:18:59.514Z,11.84
2019-02-26T18:21:28.776Z,11.74
2019-02-26T18:23:59.152Z,11.65
2019-02-26T18:26:28.286Z,11.53
2019-02-26T18:28:58.938Z,11.47
2019-02-26T18:31:31.047Z,11.38
2019-02-26T18:33:59.204Z,11.31
2019-02-26T18:36:28.309Z,11.18
2019-02-26T18:38:58.172Z,11.13
2019-02-26T18:41:27.650Z,11.10
2019-02-26T18:44:04.291Z,11.02
2019-02-26T18:46:34.244Z,10.93
2019-02-26T18:49:05.106Z,10.80
2019-02-26T18:51:37.742Z,10.74
2019-02-26T18:54:08.985Z,10.61
2019-02-26T18:56:39.474Z,10.51
2019-02-26T18:59:09.093Z,10.43
2019-02-26T19:01:40.498Z,10.38
2019-02-26T19:04:11.002Z,10.34
2019-02-26T19:06:40.376Z,10.31
2019-02-26T19:09:11.728Z,10.18
2019-02-26T19:11:42.977Z,10.05
2019-02-26T19:14:12.489Z,9.89
2019-02-26T19:16:42.170Z,9.84
2019-02-26T19:19:11.503Z,9.72
2019-02-26T19:21:41.088Z,9.74
2019-02-26T19:24:10.402Z,9.58
2019-02-26T19:26:40.253Z,9.46
2019-02-26T19:29:10.500Z,9.42
2019-02-26T19:31:42.372Z,9.27
2019-02-26T19:34:13.488Z,9.21
2019-02-26T19:36:45.681Z,9.14
2019-02-26T19:39:16.189Z,9.09
2019-02-26T19:41:47.006Z,9.04
2019-02-26T19:44:16.193Z,9.00
2019-02-26T19:46:49.417Z,8.89
2019-02-26T19:49:16.887Z,8.87
2019-02-26T19:51:46.054Z,8.81
2019-02-26T19:54:17.001Z,8.59
2019-02-26T19:56:46.471Z,8.62
2019-02-26T19:59:15.545Z,8.63
2019-02-26T20:01:45.821Z,8.79
2019-02-26T20:04:15.783Z,8.66
2019-02-26T20:06:48.828Z,8.52
2019-02-26T20:09:20.668Z,8.38
2019-02-26T20:11:50.959Z,8.42
2019-02-26T20:14:21.663Z,8.47
2019-02-26T20:16:51.623Z,8.43
2019-02-26T20:19:20.974Z,8.36
2019-02-26T20:21:51.643Z,8.47
2019-02-26T20:24:22.087Z,8.35
2019-02-26T20:26:51.813Z,8.43
2019-02-26T20:29:21.842Z,8.42
2019-02-26T20:31:55.610Z,8.37
2019-02-26T20:34:23.951Z,8.44
2019-02-26T20:36:53.621Z,8.32
2019-02-26T20:39:22.996Z,8.24
2019-02-26T20:41:55.550Z,8.08
2019-02-26T20:44:23.888Z,8.08
2019-02-26T20:46:53.105Z,8.13
2019-02-26T20:49:22.593Z,8.09
2019-02-26T20:51:51.810Z,8.14
2019-02-26T20:54:21.333Z,8.05
2019-02-26T20:56:50.982Z,8.07
2019-02-26T20:59:20.197Z,8.05
2019-02-26T21:01:49.626Z,7.96
2019-02-26T21:04:18.838Z,7.86
2019-02-26T21:06:50.402Z,7.77
2019-02-26T21:09:19.211Z,7.66
2019-02-26T21:11:48.372Z,7.43
2019-02-26T21:14:17.766Z,7.46
2019-02-26T21:16:47.256Z,7.43
2019-02-26T21:19:18.707Z,7.48
2019-02-26T21:21:49.135Z,7.55
2019-02-26T21:24:19.132Z,7.58
2019-02-26T21:26:52.630Z,7.58
2019-02-26T21:29:19.354Z,7.53
2019-02-26T21:31:49.757Z,7.56
2019-02-26T21:34:19.674Z,7.58
2019-02-26T21:36:48.941Z,7.53
2019-02-26T21:39:18.348Z,7.57
2019-02-26T21:41:47.559Z,7.52
2019-02-26T21:44:16.656Z,7.56
2019-02-26T21:46:45.905Z,7.47
2019-02-26T21:49:15.019Z,7.50
2019-02-26T21:51:44.301Z,7.59
2019-02-26T21:54:13.398Z,7.51
2019-02-26T21:56:42.657Z,7.53
2019-02-26T21:59:11.986Z,7.32
2019-02-26T22:01:43.679Z,7.28
2019-02-26T22:04:12.411Z,7.21
2019-02-26T22:06:44.451Z,7.06
2019-02-26T22:09:12.605Z,7.03
2019-02-26T22:11:43.371Z,6.96
2019-02-26T22:14:14.278Z,7.03
2019-02-26T22:16:43.469Z,6.93
2019-02-26T22:19:12.591Z,6.81
2019-02-26T22:21:51.791Z,6.79
2019-02-26T22:24:20.808Z,6.73
2019-02-26T22:26:50.239Z,6.63
2019-02-26T22:29:19.516Z,6.70
2019-02-26T22:31:48.740Z,6.60
2019-02-26T22:34:19.047Z,6.46
2019-02-26T22:36:48.839Z,6.38
2019-02-26T22:39:22.273Z,6.37
2019-02-26T22:41:49.302Z,6.37
2019-02-26T22:44:18.736Z,6.41
2019-02-26T22:46:49.463Z,6.23
2019-02-26T22:49:20.680Z,6.26
2019-02-26T22:51:49.997Z,6.34
2019-02-26T22:54:19.106Z,6.35
2019-02-26T22:56:48.609Z,6.41
2019-02-26T22:59:17.732Z,6.41
2019-02-26T23:01:47.888Z,6.26
2019-02-26T23:04:19.781Z,6.14
2019-02-26T23:06:48.571Z,6.10
2019-02-26T23:09:23.997Z,6.03
2019-02-26T23:11:53.478Z,5.99
2019-02-26T23:14:22.665Z,6.19
2019-02-26T23:16:52.558Z,6.19
2019-02-26T23:19:23.113Z,6.14
2019-02-26T23:21:52.450Z,6.26
2019-02-26T23:24:21.808Z,6.27
2019-02-26T23:26:51.234Z,6.22
2019-02-26T23:29:20.462Z,6.00
2019-02-26T23:31:50.129Z,6.15
2019-02-26T23:34:21.906Z,6.17
2019-02-26T23:36:50.574Z,6.09
2019-02-26T23:39:19.824Z,5.97
2019-02-26T23:41:49.129Z,6.03
2019-02-26T23:44:18.660Z,5.86
2019-02-26T23:46:47.841Z,5.82
2019-02-26T23:49:16.943Z,5.82
2019-02-26T23:51:45.996Z,5.73
2019-02-26T23:54:15.185Z,5.55
2019-02-26T23:56:44.329Z,5.51
2019-02-26T23:59:13.518Z,5.54
